FFT3455 KILG-KDTW
Flight info
| Callsign | FFT3455 |
|---|---|
| Flight time | N/A |
| Altitude | 32000 |
| Route | MXE PENSY J110 FLIRT BRNAN Q42 PSYKO KOZAR BONZZ2 |
| Aircraft | A21N/M-SDE2E3FGHIRWXY/LB1 |
Departure
| Time | 2026-04-27 22:43 |
|---|---|
| Airport | Wilmington Airport (KILG) |
Arrival
| Time | N/A |
|---|---|
| Airport | Detroit Metropolitan Wayne County Airport (KDTW) |
| Time | Latitude | Longitude | Altitude | Speed | Heading |
|---|---|---|---|---|---|
| 2026-04-27 22:13 | 39.67557 | -75.59884 | 88 ft | 0 kts | 221° |
| 2026-04-27 22:23 | 39.67562 | -75.59879 | 87 ft | 3 kts | 221° |
| 2026-04-27 22:23 | 39.67575 | -75.59863 | 93 ft | 3 kts | 221° |
| 2026-04-27 22:24 | 39.67589 | -75.59846 | 89 ft | 3 kts | 245° |
| 2026-04-27 22:24 | 39.67589 | -75.59823 | 91 ft | 2 kts | 308° |
| 2026-04-27 22:24 | 39.67588 | -75.59820 | 91 ft | 0 kts | 312° |
| 2026-04-27 22:29 | 39.67590 | -75.59824 | 91 ft | 0 kts | 311° |
| 2026-04-27 22:29 | 39.67620 | -75.59885 | 88 ft | 12 kts | 304° |
| 2026-04-27 22:29 | 39.67611 | -75.59974 | 91 ft | 11 kts | 226° |
| 2026-04-27 22:29 | 39.67557 | -75.60034 | 88 ft | 10 kts | 217° |
| 2026-04-27 22:30 | 39.67492 | -75.60052 | 89 ft | 10 kts | 169° |
| 2026-04-27 22:30 | 39.67428 | -75.60055 | 89 ft | 9 kts | 211° |
| 2026-04-27 22:30 | 39.67385 | -75.60102 | 89 ft | 8 kts | 221° |
| 2026-04-27 22:30 | 39.67342 | -75.60150 | 86 ft | 9 kts | 220° |
| 2026-04-27 22:31 | 39.67286 | -75.60208 | 84 ft | 11 kts | 209° |
| 2026-04-27 22:31 | 39.67208 | -75.60226 | 86 ft | 11 kts | 186° |
| 2026-04-27 22:31 | 39.67135 | -75.60236 | 87 ft | 10 kts | 185° |
| 2026-04-27 22:31 | 39.67065 | -75.60244 | 87 ft | 10 kts | 185° |
| 2026-04-27 22:32 | 39.67003 | -75.60250 | 85 ft | 3 kts | 185° |
| 2026-04-27 22:32 | 39.66971 | -75.60258 | 83 ft | 7 kts | 199° |
| 2026-04-27 22:32 | 39.66937 | -75.60301 | 83 ft | 7 kts | 257° |
| 2026-04-27 22:32 | 39.66939 | -75.60362 | 82 ft | 6 kts | 275° |
| 2026-04-27 22:33 | 39.66942 | -75.60415 | 84 ft | 7 kts | 275° |
| 2026-04-27 22:33 | 39.66952 | -75.60476 | 86 ft | 6 kts | 297° |
| 2026-04-27 22:33 | 39.66986 | -75.60512 | 86 ft | 8 kts | 340° |
| 2026-04-27 22:33 | 39.67051 | -75.60511 | 85 ft | 10 kts | 6° |
| 2026-04-27 22:34 | 39.67119 | -75.60530 | 87 ft | 10 kts | 319° |
| 2026-04-27 22:34 | 39.67160 | -75.60590 | 85 ft | 8 kts | 311° |
| 2026-04-27 22:34 | 39.67195 | -75.60641 | 90 ft | 7 kts | 311° |
| 2026-04-27 22:34 | 39.67227 | -75.60689 | 89 ft | 8 kts | 310° |
| 2026-04-27 22:35 | 39.67273 | -75.60759 | 90 ft | 11 kts | 310° |
| 2026-04-27 22:35 | 39.67328 | -75.60842 | 90 ft | 12 kts | 311° |
| 2026-04-27 22:35 | 39.67383 | -75.60924 | 90 ft | 12 kts | 311° |
| 2026-04-27 22:35 | 39.67444 | -75.61016 | 86 ft | 14 kts | 311° |
| 2026-04-27 22:36 | 39.67510 | -75.61115 | 87 ft | 14 kts | 311° |
| 2026-04-27 22:36 | 39.67569 | -75.61202 | 84 ft | 12 kts | 311° |
| 2026-04-27 22:36 | 39.67618 | -75.61276 | 87 ft | 10 kts | 311° |
| 2026-04-27 22:36 | 39.67665 | -75.61344 | 85 ft | 10 kts | 311° |
| 2026-04-27 22:37 | 39.67704 | -75.61403 | 91 ft | 9 kts | 310° |
| 2026-04-27 22:37 | 39.67733 | -75.61448 | 89 ft | 3 kts | 309° |
| 2026-04-27 22:37 | 39.67759 | -75.61488 | 87 ft | 9 kts | 310° |
| 2026-04-27 22:37 | 39.67798 | -75.61550 | 88 ft | 9 kts | 300° |
| 2026-04-27 22:38 | 39.67793 | -75.61611 | 91 ft | 5 kts | 239° |
| 2026-04-27 22:38 | 39.67772 | -75.61644 | 88 ft | 5 kts | 236° |
| 2026-04-27 22:38 | 39.67761 | -75.61675 | 92 ft | 4 kts | 251° |
| 2026-04-27 22:38 | 39.67752 | -75.61722 | 93 ft | 5 kts | 257° |
| 2026-04-27 22:39 | 39.67745 | -75.61765 | 92 ft | 5 kts | 257° |
| 2026-04-27 22:39 | 39.67738 | -75.61805 | 95 ft | 6 kts | 257° |
| 2026-04-27 22:39 | 39.67731 | -75.61848 | 93 ft | 3 kts | 258° |
| 2026-04-27 22:39 | 39.67721 | -75.61909 | 99 ft | 8 kts | 258° |
| 2026-04-27 22:40 | 39.67712 | -75.61972 | 97 ft | 6 kts | 261° |
| 2026-04-27 22:40 | 39.67724 | -75.62010 | 99 ft | 0 kts | 320° |
| 2026-04-27 22:41 | 39.67735 | -75.62019 | 98 ft | 5 kts | 330° |
| 2026-04-27 22:41 | 39.67772 | -75.62033 | 99 ft | 6 kts | 354° |
| 2026-04-27 22:41 | 39.67813 | -75.62002 | 96 ft | 8 kts | 62° |
| 2026-04-27 22:42 | 39.67820 | -75.61977 | 97 ft | 0 kts | 77° |
| 2026-04-27 22:42 | 39.67854 | -75.61777 | 96 ft | 53 kts | 78° |
| 2026-04-27 22:42 | 39.67976 | -75.61053 | 87 ft | 111 kts | 77° |
| 2026-04-27 22:42 | 39.68196 | -75.59813 | 97 ft | 164 kts | 76° |
| 2026-04-27 22:43 | 39.68451 | -75.58389 | 624 ft | 158 kts | 85° |
| 2026-04-27 22:43 | 39.68648 | -75.57025 | 1274 ft | 153 kts | 84° |
| 2026-04-27 22:43 | 39.68823 | -75.55638 | 1795 ft | 161 kts | 85° |
| 2026-04-27 22:43 | 39.68999 | -75.54110 | 2226 ft | 181 kts | 81° |
| 2026-04-27 22:44 | 39.69171 | -75.52394 | 2589 ft | 204 kts | 82° |
| 2026-04-27 22:44 | 39.69652 | -75.50630 | 3210 ft | 215 kts | 50° |
| 2026-04-27 22:44 | 39.70951 | -75.49441 | 3413 ft | 252 kts | 19° |
| 2026-04-27 22:44 | 39.72752 | -75.49316 | 3930 ft | 276 kts | 346° |
| 2026-04-27 22:45 | 39.74485 | -75.50569 | 4537 ft | 293 kts | 322° |
| 2026-04-27 22:45 | 39.76083 | -75.52203 | 5714 ft | 288 kts | 322° |
| 2026-04-27 22:45 | 39.77614 | -75.53786 | 7005 ft | 277 kts | 322° |
| 2026-04-27 22:45 | 39.79097 | -75.55323 | 8197 ft | 268 kts | 322° |
| 2026-04-27 22:46 | 39.80541 | -75.56821 | 9130 ft | 269 kts | 322° |
| 2026-04-27 22:46 | 39.82054 | -75.58332 | 9950 ft | 274 kts | 324° |
| 2026-04-27 22:46 | 39.83604 | -75.59767 | 10731 ft | 276 kts | 326° |
| 2026-04-27 22:46 | 39.85226 | -75.61218 | 11303 ft | 290 kts | 325° |
| 2026-04-27 22:47 | 39.86939 | -75.62783 | 11639 ft | 310 kts | 325° |
| 2026-04-27 22:47 | 39.88690 | -75.64527 | 11975 ft | 329 kts | 318° |
| 2026-04-27 22:47 | 39.90261 | -75.66832 | 12324 ft | 349 kts | 304° |
| 2026-04-27 22:47 | 39.91296 | -75.69743 | 12749 ft | 366 kts | 286° |
| 2026-04-27 22:48 | 39.91677 | -75.73099 | 13377 ft | 376 kts | 275° |
| 2026-04-27 22:48 | 39.91743 | -75.76505 | 14064 ft | 381 kts | 271° |
| 2026-04-27 22:48 | 39.91661 | -75.79949 | 14636 ft | 386 kts | 269° |
| 2026-04-27 22:48 | 39.91519 | -75.83467 | 15220 ft | 389 kts | 268° |
| 2026-04-27 22:49 | 39.91370 | -75.87020 | 15821 ft | 392 kts | 269° |
| 2026-04-27 22:49 | 39.91241 | -75.90548 | 16417 ft | 395 kts | 269° |
| 2026-04-27 22:49 | 39.91131 | -75.94153 | 17041 ft | 398 kts | 270° |
| 2026-04-27 22:49 | 39.91039 | -75.97766 | 17630 ft | 401 kts | 270° |
| 2026-04-27 22:50 | 39.90956 | -76.01405 | 18212 ft | 404 kts | 270° |
| 2026-04-27 22:50 | 39.90878 | -76.05041 | 18751 ft | 406 kts | 270° |
| 2026-04-27 22:50 | 39.90798 | -76.08762 | 19267 ft | 409 kts | 270° |
| 2026-04-27 22:50 | 39.90717 | -76.12435 | 19788 ft | 411 kts | 271° |
| 2026-04-27 22:51 | 39.90633 | -76.16171 | 20292 ft | 412 kts | 270° |
| 2026-04-27 22:51 | 39.90608 | -76.19919 | 20848 ft | 412 kts | 273° |
| 2026-04-27 22:51 | 39.90703 | -76.23616 | 21338 ft | 413 kts | 275° |
| 2026-04-27 22:51 | 39.90866 | -76.27378 | 21809 ft | 415 kts | 276° |
| 2026-04-27 22:52 | 39.91056 | -76.31161 | 22274 ft | 417 kts | 276° |
| 2026-04-27 22:52 | 39.91247 | -76.34910 | 22724 ft | 419 kts | 276° |
| 2026-04-27 22:52 | 39.91433 | -76.38722 | 23175 ft | 421 kts | 276° |
| 2026-04-27 22:52 | 39.91608 | -76.42556 | 23636 ft | 423 kts | 275° |
| 2026-04-27 22:53 | 39.91773 | -76.46375 | 24043 ft | 426 kts | 275° |
| 2026-04-27 22:53 | 39.91935 | -76.50250 | 24435 ft | 427 kts | 275° |
| 2026-04-27 22:53 | 39.92091 | -76.54093 | 24844 ft | 428 kts | 275° |
| 2026-04-27 22:53 | 39.92246 | -76.57988 | 25238 ft | 429 kts | 275° |
| 2026-04-27 22:54 | 39.92400 | -76.61893 | 25617 ft | 431 kts | 275° |
| 2026-04-27 22:54 | 39.92551 | -76.65769 | 25983 ft | 432 kts | 275° |
| 2026-04-27 22:54 | 39.92816 | -76.69688 | 26334 ft | 432 kts | 280° |
| 2026-04-27 22:54 | 39.93361 | -76.73502 | 26685 ft | 431 kts | 283° |
| 2026-04-27 22:55 | 39.93996 | -76.77301 | 27031 ft | 432 kts | 284° |
| 2026-04-27 22:55 | 39.94686 | -76.81124 | 27473 ft | 430 kts | 285° |
| 2026-04-27 22:55 | 39.95393 | -76.84903 | 27953 ft | 427 kts | 285° |
| 2026-04-27 22:55 | 39.96096 | -76.88616 | 28436 ft | 424 kts | 285° |
| 2026-04-27 22:56 | 39.96801 | -76.92351 | 28898 ft | 422 kts | 285° |
| 2026-04-27 22:56 | 39.97499 | -76.96067 | 29359 ft | 420 kts | 285° |
| 2026-04-27 22:56 | 39.98190 | -76.99770 | 29822 ft | 417 kts | 285° |
| 2026-04-27 22:56 | 39.98865 | -77.03412 | 30268 ft | 415 kts | 285° |
| 2026-04-27 22:57 | 39.99541 | -77.07073 | 30630 ft | 414 kts | 286° |
| 2026-04-27 22:57 | 40.00210 | -77.10705 | 30926 ft | 413 kts | 286° |
| 2026-04-27 22:57 | 40.00884 | -77.14367 | 31216 ft | 413 kts | 286° |
| 2026-04-27 22:57 | 40.01547 | -77.17977 | 31504 ft | 413 kts | 287° |
| 2026-04-27 22:58 | 40.02216 | -77.21630 | 31800 ft | 412 kts | 287° |
| 2026-04-27 22:58 | 40.02884 | -77.25282 | 32062 ft | 412 kts | 287° |
| 2026-04-27 22:58 | 40.03544 | -77.28892 | 32222 ft | 413 kts | 287° |
| 2026-04-27 22:59 | 40.04868 | -77.36170 | 32241 ft | 412 kts | 287° |
| 2026-04-27 22:59 | 40.05970 | -77.42243 | 32239 ft | 412 kts | 287° |
| 2026-04-27 23:00 | 40.07948 | -77.53176 | 32244 ft | 413 kts | 287° |
| 2026-04-27 23:00 | 40.09566 | -77.60303 | 32211 ft | 408 kts | 296° |
| 2026-04-27 23:01 | 40.12501 | -77.66617 | 32231 ft | 405 kts | 312° |
| 2026-04-27 23:01 | 40.16782 | -77.71321 | 32229 ft | 404 kts | 329° |
| 2026-04-27 23:02 | 40.21978 | -77.74108 | 32234 ft | 406 kts | 339° |
| 2026-04-27 23:02 | 40.27359 | -77.76318 | 32237 ft | 405 kts | 339° |
| 2026-04-27 23:03 | 40.32723 | -77.78562 | 32230 ft | 405 kts | 339° |
| 2026-04-27 23:03 | 40.38077 | -77.80835 | 32231 ft | 405 kts | 339° |
| 2026-04-27 23:04 | 40.43452 | -77.83127 | 32225 ft | 405 kts | 339° |
| 2026-04-27 23:04 | 40.48784 | -77.85408 | 32227 ft | 406 kts | 339° |
| 2026-04-27 23:05 | 40.54140 | -77.87704 | 32218 ft | 405 kts | 339° |
| 2026-04-27 23:05 | 40.59526 | -77.90019 | 32213 ft | 406 kts | 339° |
| 2026-04-27 23:06 | 40.64876 | -77.92320 | 32216 ft | 406 kts | 339° |
| 2026-04-27 23:06 | 40.70268 | -77.94643 | 32218 ft | 406 kts | 339° |
| 2026-04-27 23:07 | 40.75641 | -77.96961 | 32214 ft | 408 kts | 339° |
| 2026-04-27 23:07 | 40.81041 | -77.99299 | 32220 ft | 410 kts | 339° |
| 2026-04-27 23:08 | 40.86475 | -78.01654 | 32214 ft | 410 kts | 339° |
| 2026-04-27 23:08 | 40.91908 | -78.04010 | 32219 ft | 410 kts | 339° |
| 2026-04-27 23:09 | 40.97317 | -78.06363 | 32221 ft | 411 kts | 339° |
| 2026-04-27 23:09 | 41.02769 | -78.08737 | 32209 ft | 411 kts | 339° |
| 2026-04-27 23:10 | 41.08176 | -78.11096 | 32207 ft | 411 kts | 339° |
| 2026-04-27 23:10 | 41.13627 | -78.13478 | 32205 ft | 411 kts | 338° |